• Join FlightAware (Why Join?)
  • Login
  • US Flag 
05:30PM EST


 

Airport Tracker/Info


-or-


 

Live Flight TrackerFlight Track Log ✈ SWA3317 ✈ 12-Apr-2013 ✈ KSAN - KPHX

Flight Track Log - Related Links

Times and Time Zones

All times are in EDT time to prevent confusion due to time zone crossing. See the SWA3317 flight status page for this flight to view local times or setup timezone preferences in your user account.

Time Position Orientation Groundspeed Altitude Reporting Facility
EDT Latitude Longitude Course Direction KTS MPH feet Rate Location/Type
11:38PM 32.7542 -117.2875 282° West 232 267 3,700  Level Los Angeles Center
11:39PM 32.7094 -117.3306 219° Southwest 237 273 7,000 3,660 Climbing Los Angeles Center
11:40PM 32.6519 -117.2517 131° Southeast 265 305 11,300 2,880 Climbing Los Angeles Center
11:41PM 32.6381 -117.1481 99° East 311 358 13,000 2,400 Climbing Los Angeles Center
11:42PM 32.6192 -117.0272 100° East 359 413 16,300 3,060 Climbing Los Angeles Center
11:43PM 32.6175 -116.9031 91° East 376 433 19,300 2,580 Climbing Los Angeles Center
11:44PM 32.6308 -116.7739 83° East 392 451 21,600 2,280 Climbing Los Angeles Center
11:45PM 32.6447 -116.6353 83° East 425 489 24,100 2,520 Climbing Los Angeles Center
11:46PM 32.6592 -116.4725 84° East 420 483 26,900 1,680 Climbing Los Angeles Center
11:47PM 32.6719 -116.3344 84° East 428 493 27,600 1,020 Climbing Los Angeles Center
11:48PM 32.6850 -116.2033 83° East 408 470 29,000 660 Climbing Los Angeles Center
11:49PM 32.6978 -116.0706 83° East 409 471 29,000  Level Los Angeles Center
11:50PM 32.7100 -115.9367 84° East 411 473 29,000  Level Los Angeles Center
11:51PM 32.7256 -115.7750 83° East 412 474 29,000  Level Los Angeles Center
11:52PM 32.7378 -115.6392 84° East 414 476 29,000 -60 Level Los Angeles Center
11:53PM 32.7500 -115.5047 84° East 412 474 28,900  Descending Los Angeles Center
11:54PM 32.7525 -115.3672 89° East 419 482 29,000  Climbing Los Angeles Center
11:55PM 32.7581 -115.2286 87° East 420 483 29,000  Level Los Angeles Center
11:56PM 32.7611 -115.0917 88° East 417 480 29,000  Level Los Angeles Center
11:57PM 32.7647 -114.9542 88° East 418 481 29,000  Level Los Angeles Center
11:58PM 32.7669 -114.7875 89° East 422 486 29,000  Level Los Angeles Center
11:59PM 32.7686 -114.6464 89° East 426 490 29,000  Level Los Angeles Center
12:00AM 32.7708 -114.5050 89° East 428 493 29,000  Level Los Angeles Center
12:01AM 32.7739 -114.3631 88° East 432 497 29,000 -540 Level Los Angeles Center
12:02AM 32.7769 -114.2192 89° East 435 501 27,900 -1,980 Descending Los Angeles Center
12:03AM 32.7775 -114.0769 90° East 428 493 25,000 -2,220 Descending Los Angeles Center
12:04AM 32.7758 -114.0392 93° East 428 493 25,000  Level Albuquerque Center
12:05AM 32.7847 -113.9067 85° East 408 470 25,000  Level Albuquerque Center
12:06AM 32.8089 -113.7506 80° East 400 460 25,000  Level Albuquerque Center
12:07AM 32.8542 -113.6383 64° Northeast 383 441 25,000  Level Albuquerque Center
12:08AM 32.9239 -113.5436 49° Northeast 378 435 25,000 -360 Level Albuquerque Center
12:09AM 32.9947 -113.4483 48° Northeast 381 438 24,300 -1,500 Descending Albuquerque Center
12:10AM 33.0653 -113.3533 48° Northeast 382 440 22,000 -1,200 Descending Albuquerque Center
12:11AM 33.1311 -113.2614 49° Northeast 370 426 21,900 -1,320 Descending Albuquerque Center
12:12AM 33.1994 -113.1706 48° Northeast 367 422 19,400 -2,460 Descending Albuquerque Center
12:13AM 33.2631 -113.0822 49° Northeast 355 409 17,000 -1,260 Descending Albuquerque Center
12:14AM 33.2769 -112.9756 81° East 336 387 16,900 -420 Descending Albuquerque Center
12:15AM 33.2789 -112.8600 89° East 341 392 16,200 -540 Descending Albuquerque Center
12:16AM 33.2808 -112.7533 89° East 330 380 15,900 -180 Descending Albuquerque Center
12:17AM 33.2833 -112.6544 88° East 306 352 15,900 -840 Level Albuquerque Center
12:18AM 33.2864 -112.5525 88° East 298 343 14,300 -1,680 Descending Albuquerque Center
12:19AM 33.2892 -112.4586 88° East 285 328 12,600 -1,680 Descending Albuquerque Center
12:20AM 33.2919 -112.3658 88° East 282 325 11,000 -900 Descending Albuquerque Center
12:21AM 33.2981 -112.2700 86° East 289 333 10,800 -900 Descending Albuquerque Center
12:22AM 33.3061 -112.1581 85° East 284 327 9,200 -960 Descending Albuquerque Center
12:23AM 33.3147 -112.0761 83° East 254 292 8,900 -840 Descending Albuquerque Center
12:24AM 33.3356 -111.9986 72° East 247 284 7,600 -1,020 Descending Albuquerque Center
12:25AM 33.3475 -111.9278 79° East 215 247 6,900 -900 Descending Albuquerque Center
12:26AM 33.3453 -111.8583 92° East 209 241 5,800 -1,260 Descending Albuquerque Center
12:27AM 33.3833 -111.8225 38° Northeast 203 234 4,400 -1,380 Descending Albuquerque Center
12:28AM 33.4258 -111.8400 341° North 200 230 3,100 -840 Descending Albuquerque Center
12:29AM 33.4289 -111.9025 273° West 187 215 2,800 -600 Descending Albuquerque Center
12:30AM 33.4294 -111.9508 271° West 150 173 1,900 -840 Descending Albuquerque Center
12:31AM 33.4289 -111.9953 269° West 134 154 1,200 -720 Descending Albuquerque Center